Time;durP1;ratioP1;P1;durP2;ratioP2;P2;SDS_P1;SDS_P2;PMS_P1;PMS_P2;Temp;Humidity;BMP_temperature;BMP_pressure;BME280_temperature;BME280_humidity;BME280_pressure;Samples;Min_cycle;Max_cycle;Signal;HPM_P1;HPM_P2
2022/11/09 00:01:45;;;;;;;96.75;71.07;;;22.00;59.10;;;;;;4748581;55;21036;-44
2022/11/09 00:06:46;;;;;;;97.43;70.10;;;22.00;59.10;;;;;;4745236;59;21054;-44
2022/11/09 00:11:46;;;;;;;96.70;70.43;;;22.00;59.00;;;;;;4744292;59;21523;-44
2022/11/09 00:16:47;;;;;;;91.03;68.78;;;22.00;59.00;;;;;;4745466;59;21075;-42
2022/11/09 00:21:48;;;;;;;96.63;68.68;;;22.00;59.00;;;;;;5134602;55;21002;-45
2022/11/09 00:26:49;;;;;;;96.43;70.80;;;22.00;59.00;;;;;;4898648;55;21516;-43
2022/11/09 00:31:50;;;;;;;89.40;67.50;;;22.00;59.00;;;;;;4929078;55;21062;-43
2022/11/09 00:36:51;;;;;;;95.90;70.37;;;22.00;58.90;;;;;;4745781;59;21002;-43
2022/11/09 00:41:52;;;;;;;88.43;64.57;;;22.00;58.90;;;;;;4745177;55;20990;-43
2022/11/09 00:46:52;;;;;;;88.90;64.93;;;22.00;58.90;;;;;;4773911;55;21005;-46
2022/11/09 00:51:53;;;;;;;92.10;66.12;;;22.00;58.90;;;;;;4762310;55;22421;-46
2022/11/09 00:56:54;;;;;;;88.95;65.37;;;22.00;59.50;;;;;;4745476;55;21092;-48
2022/11/09 01:01:55;;;;;;;86.18;63.80;;;22.00;58.80;;;;;;4801996;55;21026;-43
2022/11/09 01:06:56;;;;;;;88.97;63.83;;;22.00;58.80;;;;;;5137599;55;20982;-39
2022/11/09 01:11:56;;;;;;;83.22;61.85;;;22.00;58.80;;;;;;4744558;59;21579;-33
2022/11/09 01:16:57;;;;;;;84.62;62.22;;;21.90;58.70;;;;;;4787909;55;21065;-45
2022/11/09 01:21:58;;;;;;;84.93;63.13;;;21.90;58.80;;;;;;4745056;59;20998;-45
2022/11/09 01:26:59;;;;;;;87.60;64.05;;;21.90;58.60;;;;;;4745035;59;21072;-39
2022/11/09 01:32:00;;;;;;;82.75;61.63;;;21.90;58.50;;;;;;5221368;55;21009;-46
2022/11/09 01:37:00;;;;;;;83.47;62.28;;;21.90;58.60;;;;;;4886667;55;21128;-36
2022/11/09 01:42:01;;;;;;;80.25;59.65;;;21.90;58.50;;;;;;4824548;55;20989;-42
2022/11/09 01:47:12;;;;;;;81.60;61.03;;;21.90;58.70;;;;;;5173993;55;21121;-46
2022/11/09 01:52:36;;;;;;;83.80;59.75;;;21.90;58.50;;;;;;5024238;55;21045;-46
2022/11/09 01:57:46;;;;;;;79.30;60.10;;;21.90;58.50;;;;;;5114133;55;21065;-33
2022/11/09 02:02:55;;;;;;;78.20;57.03;;;21.90;58.40;;;;;;4745914;55;21081;-41
2022/11/09 02:07:58;;;;;;;77.03;56.97;;;21.90;58.50;;;;;;4816033;55;21070;-43
2022/11/09 02:13:01;;;;;;;79.72;58.00;;;21.90;58.50;;;;;;5000421;55;21037;-41
2022/11/09 02:18:03;;;;;;;79.30;57.10;;;21.90;58.50;;;;;;4810826;55;21043;-41
2022/11/09 02:23:04;;;;;;;76.22;57.67;;;21.90;58.40;;;;;;4918737;55;21052;-46
2022/11/09 02:28:06;;;;;;;76.05;55.80;;;21.90;58.70;;;;;;5002578;55;21607;-44
2022/11/09 02:33:07;;;;;;;74.18;57.03;;;21.90;58.30;;;;;;4901747;55;21077;-45
2022/11/09 02:38:11;;;;;;;73.28;53.33;;;21.90;58.40;;;;;;4876875;55;21539;-41
2022/11/09 02:43:14;;;;;;;74.60;55.60;;;21.90;58.40;;;;;;5142933;55;20973;-40
2022/11/09 02:48:15;;;;;;;70.82;52.33;;;21.90;58.40;;;;;;4764834;55;20998;-49
2022/11/09 02:53:16;;;;;;;70.57;53.70;;;21.90;58.30;;;;;;4860318;55;21491;-35
2022/11/09 02:58:17;;;;;;;70.00;51.13;;;21.90;58.40;;;;;;4768457;55;21547;-43
2022/11/09 03:03:17;;;;;;;73.97;54.35;;;21.90;58.30;;;;;;4765642;55;21002;-44
2022/11/09 03:08:18;;;;;;;67.53;50.47;;;21.90;58.30;;;;;;4867631;55;21029;-38
2022/11/09 03:13:19;;;;;;;67.30;49.78;;;21.90;58.80;;;;;;4745020;59;21141;-39
2022/11/09 03:18:20;;;;;;;71.37;51.92;;;21.90;58.20;;;;;;4832380;55;21057;-40
2022/11/09 03:23:21;;;;;;;66.20;49.90;;;21.90;58.10;;;;;;4754877;55;21061;-44
2022/11/09 03:28:21;;;;;;;66.45;50.55;;;21.90;58.30;;;;;;4745465;59;21500;-44
2022/11/09 03:33:22;;;;;;;66.03;49.50;;;21.90;58.20;;;;;;4924764;55;21069;-47
2022/11/09 03:38:23;;;;;;;63.53;47.72;;;21.90;58.20;;;;;;5077004;55;21006;-47
2022/11/09 03:43:24;;;;;;;60.90;47.10;;;21.90;58.30;;;;;;4791198;55;21049;-47
2022/11/09 03:48:25;;;;;;;63.50;48.08;;;21.90;58.20;;;;;;4745665;59;21018;-39
2022/11/09 03:53:25;;;;;;;61.13;47.03;;;21.90;58.30;;;;;;4806024;55;21018;-42
2022/11/09 03:58:26;;;;;;;62.70;47.72;;;21.90;58.20;;;;;;4824185;55;21487;-43
2022/11/09 04:03:27;;;;;;;64.35;47.60;;;21.80;58.10;;;;;;4777310;55;21472;-43
2022/11/09 04:08:28;;;;;;;62.83;46.05;;;21.90;58.20;;;;;;4851680;55;21525;-40
2022/11/09 04:13:29;;;;;;;60.25;45.47;;;21.80;58.20;;;;;;4930573;55;21037;-35
2022/11/09 04:18:30;;;;;;;58.53;44.03;;;21.80;58.10;;;;;;4806029;55;21074;-33
2022/11/09 04:23:31;;;;;;;60.88;45.50;;;22.00;58.30;;;;;;5138910;55;21594;-43
2022/11/09 04:28:31;;;;;;;61.08;46.28;;;21.90;58.30;;;;;;4992628;55;21074;-46
2022/11/09 04:33:38;;;;;;;59.97;43.85;;;21.90;58.30;;;;;;4934627;55;21080;-42
2022/11/09 04:38:39;;;;;;;58.90;42.67;;;21.80;58.20;;;;;;4745459;59;21029;-41
2022/11/09 04:43:40;;;;;;;56.97;43.20;;;21.80;58.10;;;;;;4962898;55;21619;-44
2022/11/09 04:48:42;;;;;;;56.60;43.85;;;21.80;58.10;;;;;;5230586;55;21066;-45
2022/11/09 04:53:44;;;;;;;55.65;42.17;;;21.90;58.10;;;;;;4744903;59;21854;-41
2022/11/09 04:58:45;;;;;;;58.13;43.38;;;21.90;58.00;;;;;;4745202;55;21448;-46
2022/11/09 05:03:45;;;;;;;53.20;40.80;;;21.80;58.10;;;;;;5037151;55;21042;-42
2022/11/09 05:08:46;;;;;;;55.83;42.20;;;21.80;58.10;;;;;;4902117;55;21001;-45
2022/11/09 05:13:47;;;;;;;56.08;40.97;;;21.80;58.00;;;;;;5112928;55;21081;-40
2022/11/09 05:18:49;;;;;;;52.15;39.70;;;22.00;58.20;;;;;;4834267;55;20974;-44
2022/11/09 05:23:58;;;;;;;52.33;40.03;;;21.70;58.10;;;;;;4904308;55;21043;-49
2022/11/09 05:29:02;;;;;;;53.72;40.85;;;21.80;58.00;;;;;;5006035;55;21022;-36
2022/11/09 05:34:04;;;;;;;53.78;40.95;;;21.80;58.10;;;;;;4808193;55;21585;-49
2022/11/09 05:39:05;;;;;;;51.40;38.85;;;21.80;58.20;;;;;;4745761;59;21057;-43
2022/11/09 05:44:06;;;;;;;51.70;39.90;;;21.80;58.10;;;;;;4806882;55;21070;-42
2022/11/09 05:49:06;;;;;;;50.83;39.35;;;21.80;58.10;;;;;;4745872;59;21013;-43
2022/11/09 05:54:07;;;;;;;49.92;37.40;;;21.80;58.20;;;;;;4940649;55;21527;-39
2022/11/09 05:59:08;;;;;;;50.78;39.17;;;21.80;58.10;;;;;;4883354;55;21538;-48
2022/11/09 06:04:09;;;;;;;55.33;40.10;;;21.80;58.20;;;;;;4978945;55;21101;-43
2022/11/09 06:09:10;;;;;;;49.92;38.30;;;21.80;58.10;;;;;;4866558;55;21464;-45
2022/11/09 06:14:11;;;;;;;53.00;39.85;;;21.80;58.20;;;;;;4959476;55;21038;-41
2022/11/09 06:19:11;;;;;;;51.47;39.00;;;21.80;58.20;;;;;;4829941;55;21002;-44
2022/11/09 06:24:12;;;;;;;51.83;39.30;;;21.80;58.20;;;;;;5023222;55;21061;-45
2022/11/09 06:29:13;;;;;;;51.25;39.85;;;21.80;58.10;;;;;;4778117;55;21041;-40
2022/11/09 06:34:14;;;;;;;50.63;38.33;;;21.80;58.30;;;;;;4744380;59;21080;-39
2022/11/09 06:39:15;;;;;;;53.65;40.70;;;21.80;58.20;;;;;;4745383;55;21081;-42
2022/11/09 06:44:16;;;;;;;54.05;40.50;;;21.80;58.10;;;;;;4774963;55;21057;-40
2022/11/09 06:49:17;;;;;;;52.22;40.58;;;21.80;58.30;;;;;;4745167;57;21017;-45
2022/11/09 06:54:17;;;;;;;50.83;39.80;;;21.80;58.20;;;;;;4744927;59;21058;-46
2022/11/09 06:59:18;;;;;;;52.25;39.50;;;21.80;58.20;;;;;;4817956;55;21908;-45
2022/11/09 07:04:19;;;;;;;54.03;40.67;;;21.80;58.30;;;;;;4859245;55;21511;-44
2022/11/09 07:09:20;;;;;;;53.53;39.78;;;21.80;58.30;;;;;;4879934;55;21129;-45
2022/11/09 07:14:21;;;;;;;51.45;39.50;;;21.70;58.20;;;;;;4797356;55;21086;-48
2022/11/09 07:19:22;;;;;;;51.40;40.05;;;21.70;58.30;;;;;;4745126;59;21025;-46
2022/11/09 07:24:23;;;;;;;53.05;39.05;;;21.70;58.20;;;;;;4744754;59;21085;-46
2022/11/09 07:29:24;;;;;;;50.45;38.30;;;21.70;58.20;;;;;;4967722;55;21610;-46
2022/11/09 07:34:25;;;;;;;52.03;39.63;;;21.80;58.30;;;;;;4745276;59;21078;-47
2022/11/09 07:39:25;;;;;;;53.33;40.58;;;21.80;58.20;;;;;;4744927;59;21021;-48
2022/11/09 07:44:26;;;;;;;51.88;39.10;;;21.80;58.20;;;;;;4747629;55;21140;-45
2022/11/09 07:49:27;;;;;;;51.33;38.85;;;21.80;58.30;;;;;;4752522;55;21026;-41
2022/11/09 07:54:28;;;;;;;54.55;41.42;;;21.80;58.30;;;;;;4755197;55;21626;-46
2022/11/09 07:59:30;;;;;;;56.72;40.60;;;21.80;57.80;;;;;;4768648;55;21022;-48
2022/11/09 08:04:31;;;;;;;51.60;40.78;;;21.80;57.90;;;;;;4754561;55;21599;-38
2022/11/09 08:09:32;;;;;;;59.53;44.13;;;21.90;57.80;;;;;;4764007;55;21026;-36
2022/11/09 08:14:32;;;;;;;58.22;44.28;;;21.90;57.60;;;;;;4744079;59;21523;-28
2022/11/09 08:19:33;;;;;;;58.40;43.87;;;22.00;57.60;;;;;;4794079;55;21074;-32
2022/11/09 08:24:34;;;;;;;57.85;44.42;;;22.00;57.30;;;;;;4987182;55;21001;-34
2022/11/09 08:29:35;;;;;;;62.65;46.47;;;22.00;57.00;;;;;;4845635;55;21081;-43
2022/11/09 08:34:35;;;;;;;64.40;45.85;;;22.10;56.90;;;;;;4984646;55;21077;-37
2022/11/09 08:39:36;;;;;;;63.65;46.53;;;22.00;56.70;;;;;;4744957;59;21137;-34
2022/11/09 08:44:37;;;;;;;63.00;47.25;;;22.10;56.60;;;;;;4801474;55;21084;-34
2022/11/09 08:49:38;;;;;;;68.95;47.33;;;22.20;56.60;;;;;;4949155;55;21057;-34
2022/11/09 08:54:39;;;;;;;68.95;49.20;;;22.20;56.60;;;;;;4745159;59;20997;-31
2022/11/09 08:59:39;;;;;;;64.80;47.58;;;22.20;56.90;;;;;;4838450;55;21157;-31
2022/11/09 09:04:41;;;;;;;68.65;49.83;;;22.20;56.80;;;;;;4745476;59;21465;-33
2022/11/09 09:09:43;;;;;;;69.47;51.25;;;22.30;56.90;;;;;;4778843;55;21010;-35
2022/11/09 09:14:43;;;;;;;67.80;50.90;;;22.30;56.70;;;;;;4826810;55;21576;-46
2022/11/09 09:19:44;;;;;;;73.15;53.55;;;22.30;56.90;;;;;;4744073;59;21013;-45
2022/11/09 09:24:45;;;;;;;69.43;53.08;;;22.30;56.80;;;;;;4772670;55;21543;-39
2022/11/09 09:29:46;;;;;;;79.15;54.78;;;22.30;56.70;;;;;;4744873;55;21539;-44
2022/11/09 09:34:47;;;;;;;79.25;58.40;;;22.30;56.60;;;;;;4740591;59;21069;-44
2022/11/09 09:39:48;;;;;;;82.32;57.85;;;22.30;56.30;;;;;;4740683;59;21655;-48
2022/11/09 09:45:07;;;;;;;85.38;60.47;;;22.30;56.30;;;;;;4742137;59;21025;-42
2022/11/09 09:50:17;;;;;;;90.62;65.07;;;22.30;56.10;;;;;;4745747;55;21018;-38
2022/11/09 09:55:40;;;;;;;96.63;68.43;;;22.30;56.30;;;;;;4745211;59;21532;-41
2022/11/09 10:00:42;;;;;;;100.47;72.70;;;22.30;56.50;;;;;;4824086;55;21045;-39
2022/11/09 10:11:19;;;;;;;111.18;75.45;;;22.40;56.70;;;;;;5053162;55;21073;-34
2022/11/09 10:25:45;;;;;;;114.85;79.50;;;22.40;56.80;;;;;;4815813;55;21070;-34
2022/11/09 10:30:46;;;;;;;119.43;85.80;;;22.40;57.00;;;;;;4791547;55;20994;-29
2022/11/09 10:36:43;;;;;;;127.50;89.20;;;22.50;57.60;;;;;;4768859;55;21025;-39
2022/11/09 10:41:47;;;;;;;128.20;92.88;;;22.50;57.60;;;;;;4776847;55;21536;-26
2022/11/09 10:48:40;;;;;;;124.82;89.50;;;22.40;57.50;;;;;;4812993;55;21097;-30
2022/11/09 10:53:41;;;;;;;126.60;91.55;;;22.50;57.80;;;;;;4744514;59;21006;-33
2022/11/09 10:58:51;;;;;;;132.93;96.87;;;22.60;57.80;;;;;;4761604;55;20994;-33
2022/11/09 11:03:54;;;;;;;127.75;91.45;;;22.60;57.70;;;;;;4831057;55;21049;-45
2022/11/09 11:09:57;;;;;;;131.48;95.45;;;22.60;57.90;;;;;;4800462;55;21419;-30
2022/11/09 11:14:58;;;;;;;128.50;91.22;;;22.60;58.10;;;;;;4833109;55;21074;-31
2022/11/09 11:20:36;;;;;;;127.12;94.87;;;22.60;58.80;;;;;;4753030;55;21490;-32
2022/11/09 11:26:15;;;;;;;133.20;95.15;;;22.60;58.10;;;;;;4849238;55;21018;-31
2022/11/09 11:31:20;;;;;;;131.63;97.47;;;22.70;58.30;;;;;;4805752;55;21061;-31
2022/11/09 11:38:21;;;;;;;129.43;92.65;;;22.70;58.60;;;;;;4781207;55;21512;-29
2022/11/09 11:43:41;;;;;;;131.57;95.82;;;22.70;58.70;;;;;;4745215;59;20990;-43
2022/11/09 11:49:02;;;;;;;122.10;91.28;;;22.70;58.50;;;;;;4790655;55;21114;-30
2022/11/09 11:54:27;;;;;;;127.12;92.20;;;22.70;58.90;;;;;;4776998;55;21033;-37
2022/11/09 12:02:24;;;;;;;126.38;93.28;;;22.70;58.90;;;;;;4744633;59;21081;-35
2022/11/09 12:08:19;;;;;;;123.25;92.65;;;22.70;58.70;;;;;;4746564;55;21052;-27
2022/11/09 12:13:47;;;;;;;127.47;93.93;;;22.70;59.50;;;;;;4746205;55;21034;-26
2022/11/09 12:19:28;;;;;;;122.57;91.72;;;22.70;58.90;;;;;;4759443;55;21483;-40
2022/11/09 12:26:33;;;;;;;122.80;91.40;;;22.70;58.80;;;;;;4783590;55;21559;-44
2022/11/09 12:35:16;;;;;;;119.15;88.05;;;22.60;58.60;;;;;;4791239;55;21026;-32
2022/11/09 12:40:30;;;;;;;115.00;86.43;;;22.70;58.60;;;;;;4772186;55;21014;-32
2022/11/09 12:45:37;;;;;;;110.30;86.80;;;22.70;58.70;;;;;;4812112;55;21110;-36
2022/11/09 12:50:38;;;;;;;114.30;88.18;;;22.50;58.40;;;;;;4759468;55;21026;-30
2022/11/09 12:55:53;;;;;;;110.93;83.28;;;22.60;58.30;;;;;;4817081;55;20990;-35
2022/11/09 13:01:02;;;;;;;106.05;81.47;;;22.60;58.40;;;;;;4745006;59;21480;-32
2022/11/09 13:06:36;;;;;;;119.25;81.47;;;22.60;58.70;;;;;;4794514;55;21431;-29
2022/11/09 13:11:42;;;;;;;107.50;81.82;;;22.60;58.80;;;;;;4852462;55;21030;-29
2022/11/09 13:16:43;;;;;;;105.17;76.40;;;22.60;58.80;;;;;;4858955;55;21074;-30
2022/11/09 13:21:44;;;;;;;109.72;80.47;;;22.70;58.90;;;;;;4947750;55;21756;-31
2022/11/09 13:26:55;;;;;;;102.75;76.75;;;22.70;58.90;;;;;;4791460;55;21130;-30
2022/11/09 13:33:48;;;;;;;107.25;80.25;;;22.70;58.90;;;;;;4772931;55;21073;-33
2022/11/09 13:39:27;;;;;;;102.95;75.28;;;22.70;59.00;;;;;;4787187;55;20998;-29
2022/11/09 13:44:29;;;;;;;107.90;80.70;;;22.70;59.10;;;;;;4816328;55;21054;-39
2022/11/09 13:49:43;;;;;;;102.60;75.97;;;22.70;59.00;;;;;;4837952;55;21006;-35
2022/11/09 13:54:45;;;;;;;102.82;77.32;;;22.80;59.20;;;;;;4791821;55;21057;-43
2022/11/09 13:59:47;;;;;;;99.18;74.03;;;22.80;58.90;;;;;;4745776;59;20998;-29
2022/11/09 14:04:48;;;;;;;100.57;72.75;;;22.80;58.90;;;;;;4937511;55;21005;-39
2022/11/09 14:11:38;;;;;;;101.07;74.35;;;22.80;58.80;;;;;;4854823;55;20995;-28
2022/11/09 14:17:19;;;;;;;94.55;70.05;;;22.80;58.70;;;;;;4856822;55;21022;-28
2022/11/09 14:22:20;;;;;;;96.05;71.95;;;22.80;58.60;;;;;;4745449;55;21034;-41
2022/11/09 14:27:21;;;;;;;92.22;69.90;;;22.90;58.60;;;;;;4875948;55;21081;-44
2022/11/09 14:32:47;;;;;;;104.03;77.50;;;22.90;58.60;;;;;;4743604;59;21014;-38
2022/11/09 14:37:49;;;;;;;94.85;70.53;;;22.70;53.90;;;;;;4782578;55;21069;-43
2022/11/09 14:42:58;;;;;;;505.73;450.67;;;22.70;56.60;;;;;;4745413;59;21018;-38
2022/11/09 14:47:59;;;;;;;457.10;397.05;;;22.70;59.70;;;;;;4818079;55;21014;-44
2022/11/09 14:53:01;;;;;;;436.45;377.15;;;22.70;58.70;;;;;;4743204;59;21065;-41
2022/11/09 14:58:02;;;;;;;435.98;374.60;;;22.60;58.70;;;;;;4745033;59;21006;-47
2022/11/09 15:03:24;;;;;;;424.45;365.75;;;22.60;58.70;;;;;;5060620;55;21543;-47
2022/11/09 15:08:25;;;;;;;414.10;355.33;;;22.60;58.90;;;;;;4793110;55;21006;-43
2022/11/09 15:13:36;;;;;;;397.67;344.17;;;22.60;58.90;;;;;;4741759;59;21093;-45
2022/11/09 15:18:44;;;;;;;401.48;339.88;;;22.70;59.00;;;;;;4822472;55;21029;-45
2022/11/09 15:23:48;;;;;;;397.75;339.45;;;22.50;59.00;;;;;;4897772;55;21102;-46
2022/11/09 15:28:50;;;;;;;388.40;328.05;;;22.50;59.10;;;;;;4745243;59;21031;-45
2022/11/09 15:33:54;;;;;;;383.90;328.65;;;22.50;59.10;;;;;;4744595;59;21619;-46
2022/11/09 15:39:10;;;;;;;372.20;320.05;;;22.40;59.10;;;;;;4773967;55;21465;-40
2022/11/09 15:44:13;;;;;;;371.05;315.98;;;22.50;59.30;;;;;;4760931;55;20962;-44
2022/11/09 15:49:21;;;;;;;373.90;316.90;;;22.40;59.20;;;;;;4745710;55;21463;-42
2022/11/09 15:54:23;;;;;;;361.73;306.23;;;22.40;59.30;;;;;;5060567;55;21026;-41
2022/11/09 15:59:25;;;;;;;357.50;308.63;;;22.30;59.30;;;;;;4870498;55;20998;-49
2022/11/09 16:04:26;;;;;;;349.90;296.73;;;22.40;59.40;;;;;;4864262;55;21476;-43
2022/11/09 16:09:27;;;;;;;344.85;296.87;;;22.40;59.50;;;;;;4745272;59;21033;-45
2022/11/09 16:14:31;;;;;;;342.77;297.37;;;22.40;59.50;;;;;;4777032;55;21030;-45
2022/11/09 16:19:31;;;;;;;339.70;295.00;;;22.20;59.40;;;;;;4745053;59;21073;-47
2022/11/09 16:24:33;;;;;;;330.52;283.90;;;22.40;59.60;;;;;;4804242;55;21166;-51
2022/11/09 16:29:33;;;;;;;328.70;281.75;;;22.30;59.50;;;;;;5019804;55;21045;-45
2022/11/09 16:34:34;;;;;;;324.92;282.30;;;22.40;59.50;;;;;;4883358;55;21499;-42
2022/11/09 16:39:36;;;;;;;310.73;271.42;;;22.30;59.50;;;;;;4795163;55;20990;-48
2022/11/09 16:44:40;;;;;;;313.67;268.95;;;22.30;59.60;;;;;;5054409;55;21625;-47
2022/11/09 16:49:41;;;;;;;315.73;276.12;;;22.30;59.60;;;;;;4764863;55;21039;-45
2022/11/09 16:54:42;;;;;;;301.40;266.05;;;22.30;59.60;;;;;;4744948;56;21010;-44
2022/11/09 16:59:42;;;;;;;300.67;259.30;;;22.30;59.60;;;;;;4745120;56;21054;-45
2022/11/09 17:04:43;;;;;;;303.20;262.05;;;22.30;59.60;;;;;;4877837;55;21061;-37
2022/11/09 17:09:44;;;;;;;294.23;255.00;;;22.30;59.70;;;;;;4808360;55;21059;-42
2022/11/09 17:14:45;;;;;;;288.23;253.60;;;22.30;59.60;;;;;;5085505;55;21563;-46
2022/11/09 17:19:45;;;;;;;289.58;253.98;;;22.30;59.60;;;;;;4838147;55;21104;-48
2022/11/09 17:24:46;;;;;;;282.37;246.87;;;22.30;59.60;;;;;;4744421;59;21069;-47
2022/11/09 17:29:47;;;;;;;290.30;249.65;;;22.30;59.80;;;;;;4891961;55;20994;-44
2022/11/09 17:34:48;;;;;;;276.12;244.68;;;22.20;59.60;;;;;;4889347;55;21018;-47
2022/11/09 17:39:49;;;;;;;277.35;241.73;;;22.20;59.60;;;;;;4744749;59;21006;-46
2022/11/09 17:44:50;;;;;;;271.70;239.73;;;22.20;59.60;;;;;;4796902;55;21094;-44
2022/11/09 17:49:50;;;;;;;273.15;235.90;;;22.20;59.60;;;;;;4792687;55;21053;-44
2022/11/09 17:54:51;;;;;;;265.30;231.60;;;22.20;59.60;;;;;;4744655;59;21121;-38
2022/11/09 17:59:52;;;;;;;267.85;229.00;;;22.20;59.60;;;;;;4811141;55;21539;-43
2022/11/09 18:04:53;;;;;;;269.25;232.90;;;22.20;59.60;;;;;;4784285;55;21499;-48
2022/11/09 18:09:53;;;;;;;263.87;225.57;;;22.20;59.60;;;;;;4825242;55;21022;-43
2022/11/09 18:14:54;;;;;;;265.25;226.43;;;22.20;59.70;;;;;;4936371;55;21088;-39
2022/11/09 18:19:55;;;;;;;260.52;225.70;;;22.20;59.80;;;;;;4744921;55;21532;-41
2022/11/09 18:24:56;;;;;;;252.38;219.80;;;22.20;59.70;;;;;;4904902;55;21072;-43
2022/11/09 18:29:57;;;;;;;256.23;217.37;;;22.20;59.70;;;;;;4770252;55;21073;-44
2022/11/09 18:34:57;;;;;;;249.82;215.48;;;22.20;59.70;;;;;;4811806;55;21475;-41
2022/11/09 18:39:58;;;;;;;256.27;222.52;;;22.20;59.60;;;;;;4809683;55;21009;-50
2022/11/09 18:44:59;;;;;;;253.85;215.20;;;22.20;59.60;;;;;;4806611;55;21005;-44
2022/11/09 18:50:00;;;;;;;247.82;211.93;;;22.20;59.60;;;;;;4759798;55;21671;-43
2022/11/09 18:55:01;;;;;;;249.18;214.23;;;22.20;59.50;;;;;;5040686;55;21198;-45
2022/11/09 19:00:04;;;;;;;241.50;207.05;;;22.20;59.60;;;;;;4968069;55;21488;-44
2022/11/09 19:05:05;;;;;;;238.75;203.45;;;22.20;59.40;;;;;;4792115;55;21480;-42
2022/11/09 19:10:07;;;;;;;244.10;205.70;;;22.20;59.40;;;;;;4869682;55;20994;-44
2022/11/09 19:15:09;;;;;;;234.35;198.65;;;22.20;59.40;;;;;;5057288;55;21496;-41
2022/11/09 19:20:11;;;;;;;240.50;202.45;;;22.20;59.40;;;;;;5042431;55;21003;-46
2022/11/09 19:25:12;;;;;;;240.00;199.95;;;22.10;59.30;;;;;;4785189;55;21484;-43
2022/11/09 19:30:13;;;;;;;233.75;198.65;;;22.10;59.30;;;;;;4881902;55;21033;-38
2022/11/09 19:35:14;;;;;;;237.27;199.77;;;22.10;59.30;;;;;;4792061;55;21073;-46
2022/11/09 19:40:15;;;;;;;231.52;194.87;;;22.10;59.30;;;;;;4943704;55;21445;-45
2022/11/09 19:45:16;;;;;;;229.73;190.30;;;22.10;59.20;;;;;;4971954;55;21078;-41
2022/11/09 19:50:17;;;;;;;230.70;189.62;;;22.10;59.00;;;;;;4890854;55;21061;-48
2022/11/09 19:55:18;;;;;;;225.87;190.60;;;22.10;59.10;;;;;;4888879;55;21026;-44
2022/11/09 20:00:19;;;;;;;228.73;187.73;;;22.10;59.00;;;;;;4745449;59;21093;-34
2022/11/09 20:05:20;;;;;;;223.40;184.23;;;22.10;58.90;;;;;;4903437;55;21034;-49
2022/11/09 20:10:21;;;;;;;221.35;179.30;;;22.10;58.90;;;;;;4746974;55;21061;-51
2022/11/09 20:15:22;;;;;;;213.07;176.20;;;22.10;58.90;;;;;;4928306;55;21520;-37
2022/11/09 20:20:22;;;;;;;216.55;177.10;;;22.10;58.80;;;;;;4908042;55;21061;-50
2022/11/09 20:25:25;;;;;;;211.43;175.00;;;22.10;58.60;;;;;;4745246;59;21001;-46
2022/11/09 20:30:25;;;;;;;207.23;173.52;;;22.10;58.50;;;;;;4809084;55;21006;-39
2022/11/09 20:35:26;;;;;;;208.57;168.55;;;22.10;58.70;;;;;;4745344;59;21069;-45
2022/11/09 20:40:27;;;;;;;207.43;166.10;;;22.10;58.50;;;;;;5124657;55;21057;-39
2022/11/09 20:45:28;;;;;;;206.70;166.62;;;22.10;58.60;;;;;;4989140;55;21003;-44
2022/11/09 20:50:28;;;;;;;205.43;162.85;;;22.00;58.50;;;;;;4745285;59;21045;-44
2022/11/09 20:55:30;;;;;;;209.52;168.60;;;22.00;58.40;;;;;;4745049;59;21006;-41
2022/11/09 21:00:31;;;;;;;197.90;157.65;;;22.00;58.40;;;;;;4745402;59;21472;-39
2022/11/09 21:05:32;;;;;;;192.75;154.77;;;22.00;58.30;;;;;;5102381;55;21495;-48
2022/11/09 21:10:34;;;;;;;190.43;152.57;;;22.00;58.30;;;;;;4745254;55;21073;-43
2022/11/09 21:15:34;;;;;;;197.62;155.80;;;22.00;58.20;;;;;;5012758;55;21006;-46
2022/11/09 21:20:35;;;;;;;197.07;153.87;;;22.00;58.10;;;;;;4878020;55;21006;-41
2022/11/09 21:31:01;;;;;;;191.80;149.43;;;22.00;58.00;;;;;;4873982;55;21070;-48
2022/11/09 21:36:13;;;;;;;194.48;151.87;;;22.00;58.00;;;;;;4963180;55;21057;-39
2022/11/09 21:46:35;;;;;;;189.87;152.12;;;22.00;57.90;;;;;;4745024;55;21030;-42
2022/11/09 21:51:37;;;;;;;186.12;144.45;;;22.00;57.80;;;;;;4859381;55;21077;-42
2022/11/09 21:56:37;;;;;;;187.23;145.12;;;22.00;57.90;;;;;;4811507;55;20997;-40
2022/11/09 22:01:39;;;;;;;186.30;143.77;;;21.90;57.70;;;;;;4849550;55;20997;-46
2022/11/09 22:06:42;;;;;;;184.80;145.00;;;21.90;57.70;;;;;;4804612;55;21541;-42
2022/11/09 22:17:04;;;;;;;177.73;138.88;;;21.90;57.40;;;;;;5162522;55;21556;-44
2022/11/09 22:22:05;;;;;;;180.10;139.93;;;21.90;57.20;;;;;;4879266;55;20986;-29
2022/11/09 22:27:06;;;;;;;179.32;137.82;;;21.90;57.50;;;;;;5230644;55;21449;-43
2022/11/09 22:32:07;;;;;;;176.18;137.27;;;21.90;57.50;;;;;;4818993;55;21082;-40
2022/11/09 22:37:08;;;;;;;175.57;139.30;;;21.90;57.50;;;;;;4769624;55;21017;-44
2022/11/09 22:42:09;;;;;;;180.48;138.40;;;21.90;57.40;;;;;;4817043;55;21002;-48
2022/11/09 22:47:10;;;;;;;168.70;131.32;;;21.90;57.60;;;;;;5174841;55;21074;-50
2022/11/09 22:52:10;;;;;;;172.70;132.65;;;21.90;57.50;;;;;;5157143;55;21069;-43
2022/11/09 22:57:11;;;;;;;162.65;126.53;;;21.90;57.50;;;;;;4745639;55;21021;-49
2022/11/09 23:02:12;;;;;;;168.13;130.93;;;21.90;57.60;;;;;;4843936;55;21115;-44
2022/11/09 23:07:13;;;;;;;165.55;130.60;;;21.90;57.60;;;;;;5230735;55;21070;-40
2022/11/09 23:12:14;;;;;;;162.02;127.12;;;21.90;57.60;;;;;;4745048;59;21508;-38
2022/11/09 23:22:34;;;;;;;165.05;131.52;;;21.90;57.50;;;;;;4745297;55;21018;-45
2022/11/09 23:27:35;;;;;;;156.10;121.95;;;21.80;57.50;;;;;;4984557;55;21078;-38
2022/11/09 23:32:36;;;;;;;160.68;126.22;;;21.90;57.60;;;;;;4885631;55;21452;-40
2022/11/09 23:37:37;;;;;;;159.02;123.75;;;21.90;57.70;;;;;;4745235;59;21057;-39
2022/11/09 23:42:37;;;;;;;154.80;121.68;;;21.90;57.80;;;;;;4745382;59;21086;-40
2022/11/09 23:47:38;;;;;;;157.60;120.50;;;21.90;57.80;;;;;;4900923;55;21069;-43
2022/11/09 23:52:39;;;;;;;157.15;124.87;;;21.90;57.70;;;;;;4848133;55;21010;-44
2022/11/09 23:57:40;;;;;;;153.82;120.13;;;21.90;58.40;;;;;;5071679;55;21161;-33
